sensor_id;sensor_type;location;lat;lon;timestamp;pressure;altitude;pressure_sealevel;temperature;humidity
29215;BME280;16252;49.816;7.964;2023-05-12T00:01:10;99747.69;;;16.09;61.79
29215;BME280;16252;49.816;7.964;2023-05-12T00:03:35;99731.44;;;16.00;61.73
29215;BME280;16252;49.816;7.964;2023-05-12T00:06:00;99771.78;;;16.28;61.75
29215;BME280;16252;49.816;7.964;2023-05-12T00:08:28;99739.22;;;16.03;61.75
29215;BME280;16252;49.816;7.964;2023-05-12T00:10:53;99779.88;;;16.28;62.10
29215;BME280;16252;49.816;7.964;2023-05-12T00:13:18;99765.31;;;16.21;61.89
29215;BME280;16252;49.816;7.964;2023-05-12T00:15:47;99761.38;;;16.15;61.81
29215;BME280;16252;49.816;7.964;2023-05-12T00:18:13;99775.47;;;16.27;62.21
29215;BME280;16252;49.816;7.964;2023-05-12T00:20:38;99758.53;;;16.17;61.97
29215;BME280;16252;49.816;7.964;2023-05-12T00:23:03;99761.38;;;16.15;62.17
29215;BME280;16252;49.816;7.964;2023-05-12T00:25:28;99761.94;;;16.19;62.11
29215;BME280;16252;49.816;7.964;2023-05-12T00:27:54;99753.28;;;16.15;62.12
29215;BME280;16252;49.816;7.964;2023-05-12T00:30:19;99749.56;;;16.08;62.40
29215;BME280;16252;49.816;7.964;2023-05-12T00:32:45;99752.25;;;16.08;62.47
29215;BME280;16252;49.816;7.964;2023-05-12T00:35:10;99742.63;;;16.06;62.42
29215;BME280;16252;49.816;7.964;2023-05-12T00:37:35;99741.75;;;16.05;62.27
29215;BME280;16252;49.816;7.964;2023-05-12T00:40:00;99765.59;;;16.18;62.32
29215;BME280;16252;49.816;7.964;2023-05-12T00:42:26;99754.63;;;16.11;62.18
29215;BME280;16252;49.816;7.964;2023-05-12T00:44:51;99768.31;;;16.18;62.34
29215;BME280;16252;49.816;7.964;2023-05-12T00:47:16;99756.47;;;16.11;62.46
29215;BME280;16252;49.816;7.964;2023-05-12T00:49:44;99744.78;;;16.02;62.57
29215;BME280;16252;49.816;7.964;2023-05-12T00:52:09;99738.00;;;15.98;62.34
29215;BME280;16252;49.816;7.964;2023-05-12T00:54:35;99740.22;;;16.02;62.17
29215;BME280;16252;49.816;7.964;2023-05-12T00:57:01;99760.03;;;16.11;62.40
29215;BME280;16252;49.816;7.964;2023-05-12T00:59:27;99754.25;;;16.06;62.54
29215;BME280;16252;49.816;7.964;2023-05-12T01:01:54;99754.06;;;16.08;62.64
29215;BME280;16252;49.816;7.964;2023-05-12T01:04:20;99772.03;;;16.17;62.78
29215;BME280;16252;49.816;7.964;2023-05-12T01:06:54;99762.41;;;16.14;62.62
29215;BME280;16252;49.816;7.964;2023-05-12T01:09:20;99733.78;;;15.95;62.81
29215;BME280;16252;49.816;7.964;2023-05-12T01:11:46;99753.56;;;16.04;62.65
29215;BME280;16252;49.816;7.964;2023-05-12T01:14:11;99734.63;;;15.96;62.56
29215;BME280;16252;49.816;7.964;2023-05-12T01:16:57;99757.22;;;16.21;62.37
29215;BME280;16252;49.816;7.964;2023-05-12T01:19:42;99761.97;;;16.27;62.54
29215;BME280;16252;49.816;7.964;2023-05-12T01:22:10;99756.31;;;16.12;62.67
29215;BME280;16252;49.816;7.964;2023-05-12T01:24:44;99748.56;;;16.17;63.03
29215;BME280;16252;49.816;7.964;2023-05-12T01:27:11;99739.06;;;16.05;62.82
29215;BME280;16252;49.816;7.964;2023-05-12T01:29:37;99744.28;;;16.07;62.63
29215;BME280;16252;49.816;7.964;2023-05-12T01:32:03;99761.09;;;16.18;62.84
29215;BME280;16252;49.816;7.964;2023-05-12T01:34:29;99735.38;;;16.06;62.42
29215;BME280;16252;49.816;7.964;2023-05-12T01:36:54;99740.06;;;16.04;62.64
29215;BME280;16252;49.816;7.964;2023-05-12T01:39:19;99758.53;;;16.17;62.47
29215;BME280;16252;49.816;7.964;2023-05-12T01:41:45;99733.13;;;16.01;62.72
29215;BME280;16252;49.816;7.964;2023-05-12T01:44:10;99742.75;;;16.04;62.81
29215;BME280;16252;49.816;7.964;2023-05-12T01:46:35;99729.53;;;15.93;62.47
29215;BME280;16252;49.816;7.964;2023-05-12T01:49:00;99744.41;;;15.97;62.60
29215;BME280;16252;49.816;7.964;2023-05-12T01:51:25;99752.88;;;16.02;62.87
29215;BME280;16252;49.816;7.964;2023-05-12T01:53:51;99748.44;;;15.93;63.07
29215;BME280;16252;49.816;7.964;2023-05-12T01:56:16;99750.13;;;15.94;62.93
29215;BME280;16252;49.816;7.964;2023-05-12T01:58:41;99762.44;;;15.96;62.92
29215;BME280;16252;49.816;7.964;2023-05-12T02:01:06;99738.56;;;15.84;62.94
29215;BME280;16252;49.816;7.964;2023-05-12T02:03:32;99775.47;;;16.01;63.28
29215;BME280;16252;49.816;7.964;2023-05-12T02:05:57;99762.97;;;16.00;63.19
29215;BME280;16252;49.816;7.964;2023-05-12T02:08:22;99764.69;;;16.01;63.17
29215;BME280;16252;49.816;7.964;2023-05-12T02:10:48;99770.91;;;16.01;63.13
29215;BME280;16252;49.816;7.964;2023-05-12T02:13:13;99746.03;;;15.90;63.32
29215;BME280;16252;49.816;7.964;2023-05-12T02:15:39;99754.81;;;15.92;63.47
29215;BME280;16252;49.816;7.964;2023-05-12T02:18:04;99751.13;;;15.93;63.27
29215;BME280;16252;49.816;7.964;2023-05-12T02:20:30;99769.22;;;16.00;63.42
29215;BME280;16252;49.816;7.964;2023-05-12T02:22:55;99726.41;;;15.79;63.25
29215;BME280;16252;49.816;7.964;2023-05-12T02:25:21;99763.47;;;15.95;63.29
29215;BME280;16252;49.816;7.964;2023-05-12T02:27:46;99753.66;;;15.94;63.49
29215;BME280;16252;49.816;7.964;2023-05-12T02:30:11;99739.28;;;15.86;63.21
29215;BME280;16252;49.816;7.964;2023-05-12T02:32:37;99732.47;;;15.81;63.33
29215;BME280;16252;49.816;7.964;2023-05-12T02:35:02;99746.91;;;15.90;63.18
29215;BME280;16252;49.816;7.964;2023-05-12T02:37:27;99748.91;;;15.88;63.49
29215;BME280;16252;49.816;7.964;2023-05-12T02:39:53;99735.56;;;15.87;63.38
29215;BME280;16252;49.816;7.964;2023-05-12T02:42:18;99735.03;;;15.83;63.30
29215;BME280;16252;49.816;7.964;2023-05-12T02:44:43;99732.47;;;15.81;63.58
29215;BME280;16252;49.816;7.964;2023-05-12T02:47:08;99729.97;;;15.80;63.35
29215;BME280;16252;49.816;7.964;2023-05-12T02:49:34;99738.56;;;15.84;63.70
29215;BME280;16252;49.816;7.964;2023-05-12T02:52:00;99743.81;;;15.85;63.53
29215;BME280;16252;49.816;7.964;2023-05-12T02:54:25;99755.84;;;15.91;63.45
29215;BME280;16252;49.816;7.964;2023-05-12T02:56:51;99713.56;;;15.73;63.52
29215;BME280;16252;49.816;7.964;2023-05-12T02:59:17;99764.31;;;15.96;63.74
29215;BME280;16252;49.816;7.964;2023-05-12T03:01:42;99738.91;;;15.80;63.64
29215;BME280;16252;49.816;7.964;2023-05-12T03:04:07;99759.88;;;15.95;63.64
29215;BME280;16252;49.816;7.964;2023-05-12T03:06:33;99736.66;;;15.76;63.66
29215;BME280;16252;49.816;7.964;2023-05-12T03:08:58;99747.69;;;15.82;63.82
29215;BME280;16252;49.816;7.964;2023-05-12T03:11:23;99740.56;;;15.81;63.87
29215;BME280;16252;49.816;7.964;2023-05-12T03:13:49;99738.72;;;15.82;63.83
29215;BME280;16252;49.816;7.964;2023-05-12T03:16:14;99728.19;;;15.71;64.04
29215;BME280;16252;49.816;7.964;2023-05-12T03:18:41;99756.31;;;15.86;64.09
29215;BME280;16252;49.816;7.964;2023-05-12T03:21:06;99739.88;;;15.79;64.09
29215;BME280;16252;49.816;7.964;2023-05-12T03:23:31;99752.22;;;15.82;64.24
29215;BME280;16252;49.816;7.964;2023-05-12T03:25:57;99741.91;;;15.77;64.10
29215;BME280;16252;49.816;7.964;2023-05-12T03:28:22;99754.25;;;15.80;64.16
29215;BME280;16252;49.816;7.964;2023-05-12T03:30:48;99757.13;;;15.87;64.33
29215;BME280;16252;49.816;7.964;2023-05-12T03:33:14;99747.13;;;15.79;64.21
29215;BME280;16252;49.816;7.964;2023-05-12T03:35:39;99775.09;;;15.96;64.26
29215;BME280;16252;49.816;7.964;2023-05-12T03:38:04;99739.69;;;15.73;64.13
29215;BME280;16252;49.816;7.964;2023-05-12T03:40:30;99738.41;;;15.67;64.40
29215;BME280;16252;49.816;7.964;2023-05-12T03:42:55;99748.63;;;15.73;64.34
29215;BME280;16252;49.816;7.964;2023-05-12T03:45:20;99746.75;;;15.74;64.65
29215;BME280;16252;49.816;7.964;2023-05-12T03:47:45;99767.56;;;15.81;64.57
29215;BME280;16252;49.816;7.964;2023-05-12T03:50:11;99760.09;;;15.75;64.62
29215;BME280;16252;49.816;7.964;2023-05-12T03:52:36;99757.03;;;15.70;64.66
29215;BME280;16252;49.816;7.964;2023-05-12T03:55:03;99781.28;;;15.88;64.80
29215;BME280;16252;49.816;7.964;2023-05-12T03:57:29;99772.34;;;15.88;64.64
29215;BME280;16252;49.816;7.964;2023-05-12T03:59:55;99766.72;;;15.81;64.74
29215;BME280;16252;49.816;7.964;2023-05-12T04:02:20;99775.19;;;15.86;64.64
29215;BME280;16252;49.816;7.964;2023-05-12T04:04:45;99756.06;;;15.79;64.50
29215;BME280;16252;49.816;7.964;2023-05-12T04:07:10;99754.84;;;15.74;64.39
29215;BME280;16252;49.816;7.964;2023-05-12T04:09:36;99745.91;;;15.73;64.47
29215;BME280;16252;49.816;7.964;2023-05-12T04:12:01;99753.00;;;15.74;64.46
29215;BME280;16252;49.816;7.964;2023-05-12T04:14:26;99756.44;;;15.85;64.63
29215;BME280;16252;49.816;7.964;2023-05-12T04:16:52;99767.09;;;15.86;64.47
29215;BME280;16252;49.816;7.964;2023-05-12T04:19:17;99763.22;;;15.89;64.62
29215;BME280;16252;49.816;7.964;2023-05-12T04:21:42;99754.25;;;15.80;64.59
29215;BME280;16252;49.816;7.964;2023-05-12T04:24:09;99791.66;;;16.01;64.78
29215;BME280;16252;49.816;7.964;2023-05-12T04:26:34;99773.19;;;15.88;64.81
29215;BME280;16252;49.816;7.964;2023-05-12T04:28:59;99761.69;;;15.86;64.78
29215;BME280;16252;49.816;7.964;2023-05-12T04:31:24;99766.44;;;15.92;64.74
29215;BME280;16252;49.816;7.964;2023-05-12T04:33:50;99730.44;;;15.75;64.84
29215;BME280;16252;49.816;7.964;2023-05-12T04:36:15;99775.09;;;15.96;64.79
29215;BME280;16252;49.816;7.964;2023-05-12T04:38:41;99774.25;;;15.95;64.76
29215;BME280;16252;49.816;7.964;2023-05-12T04:41:06;99777.63;;;15.97;64.56
29215;BME280;16252;49.816;7.964;2023-05-12T04:43:32;99749.50;;;15.82;64.76
29215;BME280;16252;49.816;7.964;2023-05-12T04:45:57;99785.41;;;16.00;64.79
29215;BME280;16252;49.816;7.964;2023-05-12T04:48:22;99766.44;;;15.92;64.68
29215;BME280;16252;49.816;7.964;2023-05-12T04:50:48;99779.94;;;15.92;64.63
29215;BME280;16252;49.816;7.964;2023-05-12T04:53:16;99801.88;;;16.15;64.96
29215;BME280;16252;49.816;7.964;2023-05-12T04:55:43;99785.72;;;15.97;65.00
29215;BME280;16252;49.816;7.964;2023-05-12T04:58:11;99779.28;;;15.90;65.14
29215;BME280;16252;49.816;7.964;2023-05-12T05:00:36;99802.66;;;16.08;65.45
29215;BME280;16252;49.816;7.964;2023-05-12T05:03:01;99765.59;;;15.92;65.22
29215;BME280;16252;49.816;7.964;2023-05-12T05:05:27;99801.28;;;16.03;65.51
29215;BME280;16252;49.816;7.964;2023-05-12T05:07:53;99806.03;;;16.10;65.27
29215;BME280;16252;49.816;7.964;2023-05-12T05:10:18;99798.97;;;16.09;65.62
29215;BME280;16252;49.816;7.964;2023-05-12T05:12:43;99795.72;;;16.05;65.60
29215;BME280;16252;49.816;7.964;2023-05-12T05:15:09;99784.91;;;16.05;65.77
29215;BME280;16252;49.816;7.964;2023-05-12T05:17:35;99818.59;;;16.19;65.90
29215;BME280;16252;49.816;7.964;2023-05-12T05:20:01;99800.28;;;16.04;65.57
29215;BME280;16252;49.816;7.964;2023-05-12T05:22:26;99823.00;;;16.20;65.63
29215;BME280;16252;49.816;7.964;2023-05-12T05:24:51;99792.66;;;16.00;65.50
29215;BME280;16252;49.816;7.964;2023-05-12T05:27:17;99770.69;;;15.95;65.58
29215;BME280;16252;49.816;7.964;2023-05-12T05:29:42;99800.13;;;16.06;65.66
29215;BME280;16252;49.816;7.964;2023-05-12T05:32:07;99796.28;;;16.09;65.79
29215;BME280;16252;49.816;7.964;2023-05-12T05:34:32;99797.81;;;16.11;65.60
29215;BME280;16252;49.816;7.964;2023-05-12T05:36:58;99804.75;;;16.14;65.72
29215;BME280;16252;49.816;7.964;2023-05-12T05:39:23;99810.66;;;16.17;65.71
29215;BME280;16252;49.816;7.964;2023-05-12T05:41:48;99804.56;;;16.15;65.57
29215;BME280;16252;49.816;7.964;2023-05-12T05:44:13;99823.59;;;16.32;65.57
29215;BME280;16252;49.816;7.964;2023-05-12T05:46:39;99834.25;;;16.33;65.66
29215;BME280;16252;49.816;7.964;2023-05-12T05:49:04;99827.97;;;16.33;65.71
29215;BME280;16252;49.816;7.964;2023-05-12T05:51:29;99822.75;;;16.31;65.82
29215;BME280;16252;49.816;7.964;2023-05-12T05:53:55;99802.72;;;16.16;65.59
29215;BME280;16252;49.816;7.964;2023-05-12T05:56:20;99810.38;;;16.20;65.65
29215;BME280;16252;49.816;7.964;2023-05-12T05:58:47;99783.09;;;16.06;65.81
29215;BME280;16252;49.816;7.964;2023-05-12T06:01:12;99783.09;;;16.06;65.79
29215;BME280;16252;49.816;7.964;2023-05-12T06:03:38;99818.66;;;16.27;65.73
29215;BME280;16252;49.816;7.964;2023-05-12T06:06:04;99802.41;;;16.19;65.62
29215;BME280;16252;49.816;7.964;2023-05-12T06:08:29;99823.72;;;16.30;65.69
29215;BME280;16252;49.816;7.964;2023-05-12T06:10:54;99824.06;;;16.27;65.51
29215;BME280;16252;49.816;7.964;2023-05-12T06:13:19;99791.00;;;16.07;65.67
29215;BME280;16252;49.816;7.964;2023-05-12T06:15:45;99798.97;;;16.09;65.64
29215;BME280;16252;49.816;7.964;2023-05-12T06:18:10;99837.72;;;16.25;65.99
29215;BME280;16252;49.816;7.964;2023-05-12T06:20:35;99835.88;;;16.26;66.25
29215;BME280;16252;49.816;7.964;2023-05-12T06:23:01;99869.75;;;16.46;66.07
29215;BME280;16252;49.816;7.964;2023-05-12T06:25:26;99851.47;;;16.40;66.21
29215;BME280;16252;49.816;7.964;2023-05-12T06:27:51;99817.41;;;16.13;66.21
29215;BME280;16252;49.816;7.964;2023-05-12T06:30:17;99848.25;;;16.37;66.30
29215;BME280;16252;49.816;7.964;2023-05-12T06:32:42;99849.31;;;16.44;66.46
29215;BME280;16252;49.816;7.964;2023-05-12T06:35:07;99844.06;;;16.42;66.54
29215;BME280;16252;49.816;7.964;2023-05-12T06:37:33;99865.63;;;16.60;66.37
29215;BME280;16252;49.816;7.964;2023-05-12T06:39:58;99859.00;;;16.55;66.39
29215;BME280;16252;49.816;7.964;2023-05-12T06:42:23;99850.91;;;16.55;66.52
29215;BME280;16252;49.816;7.964;2023-05-12T06:44:49;99829.25;;;16.46;66.42
29215;BME280;16252;49.816;7.964;2023-05-12T06:47:14;99872.13;;;16.76;66.52
29215;BME280;16252;49.816;7.964;2023-05-12T06:49:40;99866.56;;;16.77;66.41
29215;BME280;16252;49.816;7.964;2023-05-12T06:52:05;99859.19;;;16.79;66.29
29215;BME280;16252;49.816;7.964;2023-05-12T06:54:31;99878.19;;;16.96;66.22
29215;BME280;16252;49.816;7.964;2023-05-12T06:56:56;99848.38;;;16.79;65.63
29215;BME280;16252;49.816;7.964;2023-05-12T06:59:22;99863.47;;;16.90;65.61
29215;BME280;16252;49.816;7.964;2023-05-12T07:01:47;99859.38;;;16.86;65.49
29215;BME280;16252;49.816;7.964;2023-05-12T07:04:12;99870.56;;;16.91;65.46
29215;BME280;16252;49.816;7.964;2023-05-12T07:06:38;99874.41;;;16.88;65.18
29215;BME280;16252;49.816;7.964;2023-05-12T07:09:03;99871.72;;;16.88;65.15
29215;BME280;16252;49.816;7.964;2023-05-12T07:11:28;99882.22;;;16.92;65.31
29215;BME280;16252;49.816;7.964;2023-05-12T07:13:54;99882.22;;;16.92;65.34
29215;BME280;16252;49.816;7.964;2023-05-12T07:16:19;99864.97;;;16.84;66.03
29215;BME280;16252;49.816;7.964;2023-05-12T07:18:44;99867.19;;;16.89;66.12
29215;BME280;16252;49.816;7.964;2023-05-12T07:21:10;99876.91;;;17.08;66.42
29215;BME280;16252;49.816;7.964;2023-05-12T07:23:36;99883.09;;;17.35;66.53
29215;BME280;16252;49.816;7.964;2023-05-12T07:26:03;99864.66;;;17.38;66.68
29215;BME280;16252;49.816;7.964;2023-05-12T07:28:29;99888.59;;;17.67;66.63
29215;BME280;16252;49.816;7.964;2023-05-12T07:30:57;99863.41;;;17.75;66.17
29215;BME280;16252;49.816;7.964;2023-05-12T07:33:22;99864.63;;;17.97;65.80
29215;BME280;16252;49.816;7.964;2023-05-12T07:35:48;99887.69;;;18.26;65.55
29215;BME280;16252;49.816;7.964;2023-05-12T07:38:13;99882.06;;;18.35;64.59
29215;BME280;16252;49.816;7.964;2023-05-12T07:40:39;99864.47;;;18.31;63.74
29215;BME280;16252;49.816;7.964;2023-05-12T07:43:04;99864.63;;;18.38;63.47
29215;BME280;16252;49.816;7.964;2023-05-12T07:45:29;99893.91;;;18.59;63.17
29215;BME280;16252;49.816;7.964;2023-05-12T07:47:55;99896.63;;;18.59;62.75
29215;BME280;16252;49.816;7.964;2023-05-12T07:50:20;99864.97;;;18.43;62.81
29215;BME280;16252;49.816;7.964;2023-05-12T07:52:49;99866.31;;;18.47;62.75
29215;BME280;16252;49.816;7.964;2023-05-12T07:55:16;99900.66;;;18.63;62.64
29215;BME280;16252;49.816;7.964;2023-05-12T07:57:41;99899.81;;;18.62;62.45
29215;BME280;16252;49.816;7.964;2023-05-12T08:00:07;99884.78;;;18.52;62.32
29215;BME280;16252;49.816;7.964;2023-05-12T08:02:33;99868.34;;;18.45;62.46
29215;BME280;16252;49.816;7.964;2023-05-12T08:04:58;99880.69;;;18.56;61.98
29215;BME280;16252;49.816;7.964;2023-05-12T08:07:24;99887.97;;;18.55;62.15
29215;BME280;16252;49.816;7.964;2023-05-12T08:09:49;99885.63;;;18.52;62.27
29215;BME280;16252;49.816;7.964;2023-05-12T08:12:15;99887.28;;;18.53;62.16
29215;BME280;16252;49.816;7.964;2023-05-12T08:14:40;99888.66;;;18.49;62.10
29215;BME280;16252;49.816;7.964;2023-05-12T08:17:05;99895.41;;;18.53;61.99
29215;BME280;16252;49.816;7.964;2023-05-12T08:19:31;99893.25;;;18.49;62.18
29215;BME280;16252;49.816;7.964;2023-05-12T08:21:56;99893.25;;;18.49;61.79
29215;BME280;16252;49.816;7.964;2023-05-12T08:24:21;99893.56;;;18.46;61.97
29215;BME280;16252;49.816;7.964;2023-05-12T08:26:46;99880.03;;;18.37;61.72
29215;BME280;16252;49.816;7.964;2023-05-12T08:29:12;99909.66;;;18.47;61.98
29215;BME280;16252;49.816;7.964;2023-05-12T08:31:37;99907.97;;;18.46;61.76
29215;BME280;16252;49.816;7.964;2023-05-12T08:34:02;99894.25;;;18.39;61.97
29215;BME280;16252;49.816;7.964;2023-05-12T08:36:28;99913.22;;;18.48;61.67
29215;BME280;16252;49.816;7.964;2023-05-12T08:38:53;99902.56;;;18.46;62.41
29215;BME280;16252;49.816;7.964;2023-05-12T08:41:38;99918.44;;;18.66;62.23
29215;BME280;16252;49.816;7.964;2023-05-12T08:44:06;99921.47;;;18.71;62.65
29215;BME280;16252;49.816;7.964;2023-05-12T08:46:33;99899.34;;;18.59;62.24
29215;BME280;16252;49.816;7.964;2023-05-12T08:49:00;99918.97;;;18.77;62.01
29215;BME280;16252;49.816;7.964;2023-05-12T08:51:28;99889.66;;;18.65;61.61
29215;BME280;16252;49.816;7.964;2023-05-12T08:53:55;99896.44;;;18.69;61.57
29215;BME280;16252;49.816;7.964;2023-05-12T08:56:21;99919.66;;;18.79;60.91
29215;BME280;16252;49.816;7.964;2023-05-12T08:58:47;99899.47;;;18.66;61.23
29215;BME280;16252;49.816;7.964;2023-05-12T09:01:13;99919.47;;;18.81;61.51
29215;BME280;16252;49.816;7.964;2023-05-12T09:03:38;99898.28;;;18.68;61.64
29215;BME280;16252;49.816;7.964;2023-05-12T09:06:07;99927.94;;;18.94;61.67
29215;BME280;16252;49.816;7.964;2023-05-12T09:08:32;99902.69;;;18.86;61.63
29215;BME280;16252;49.816;7.964;2023-05-12T09:10:59;99918.06;;;19.01;61.41
29215;BME280;16252;49.816;7.964;2023-05-12T09:13:37;99921.78;;;19.09;60.79
29215;BME280;16252;49.816;7.964;2023-05-12T09:16:10;99925.69;;;19.06;60.19
29215;BME280;16252;49.816;7.964;2023-05-12T09:18:51;99888.78;;;18.89;60.06
29215;BME280;16252;49.816;7.964;2023-05-12T09:21:17;99906.91;;;18.88;60.57
29215;BME280;16252;49.816;7.964;2023-05-12T09:24:06;99902.84;;;18.92;60.23
29215;BME280;16252;49.816;7.964;2023-05-12T09:26:45;99925.31;;;19.17;60.15
29215;BME280;16252;49.816;7.964;2023-05-12T09:29:11;99908.09;;;19.02;61.04
29215;BME280;16252;49.816;7.964;2023-05-12T09:31:37;99923.94;;;19.21;60.91
29215;BME280;16252;49.816;7.964;2023-05-12T09:34:08;99937.28;;;19.31;60.69
29215;BME280;16252;49.816;7.964;2023-05-12T09:36:34;99909.22;;;19.16;60.17
29215;BME280;16252;49.816;7.964;2023-05-12T09:39:07;99901.59;;;19.19;59.91
29215;BME280;16252;49.816;7.964;2023-05-12T09:41:36;99915.28;;;19.26;59.57
29215;BME280;16252;49.816;7.964;2023-05-12T09:44:02;99935.41;;;19.32;59.65
29215;BME280;16252;49.816;7.964;2023-05-12T09:46:28;99906.69;;;19.14;59.39
29215;BME280;16252;49.816;7.964;2023-05-12T09:48:57;99925.63;;;19.22;59.50
29215;BME280;16252;49.816;7.964;2023-05-12T09:51:23;99906.38;;;19.09;59.34
29215;BME280;16252;49.816;7.964;2023-05-12T09:53:49;99931.53;;;19.26;59.77
29215;BME280;16252;49.816;7.964;2023-05-12T09:56:15;99890.44;;;19.06;59.63
29215;BME280;16252;49.816;7.964;2023-05-12T09:58:43;99928.78;;;19.34;59.85
29215;BME280;16252;49.816;7.964;2023-05-12T10:01:16;99922.38;;;19.35;59.65
29215;BME280;16252;49.816;7.964;2023-05-12T10:03:44;99924.31;;;19.49;60.34
29215;BME280;16252;49.816;7.964;2023-05-12T10:06:14;99921.91;;;19.63;59.63
29215;BME280;16252;49.816;7.964;2023-05-12T10:08:45;99910.56;;;19.67;59.35
29215;BME280;16252;49.816;7.964;2023-05-12T10:11:13;99903.94;;;19.70;58.80
29215;BME280;16252;49.816;7.964;2023-05-12T10:13:38;99895.22;;;19.75;58.99
29215;BME280;16252;49.816;7.964;2023-05-12T10:16:04;99899.59;;;19.84;59.22
29215;BME280;16252;49.816;7.964;2023-05-12T10:18:32;99920.47;;;20.06;58.85
29215;BME280;16252;49.816;7.964;2023-05-12T10:20:58;99912.47;;;20.13;59.09
29215;BME280;16252;49.816;7.964;2023-05-12T10:23:25;99909.69;;;20.21;58.55
29215;BME280;16252;49.816;7.964;2023-05-12T10:25:53;99920.91;;;20.41;58.53
29215;BME280;16252;49.816;7.964;2023-05-12T10:28:22;99901.88;;;20.41;58.29
29215;BME280;16252;49.816;7.964;2023-05-12T10:30:48;99913.66;;;20.56;58.24
29215;BME280;16252;49.816;7.964;2023-05-12T10:33:15;99908.97;;;20.65;57.92
29215;BME280;16252;49.816;7.964;2023-05-12T10:35:42;99923.25;;;20.82;56.83
29215;BME280;16252;49.816;7.964;2023-05-12T10:38:13;99922.31;;;20.90;56.51
29215;BME280;16252;49.816;7.964;2023-05-12T10:40:59;99910.53;;;20.97;56.42
29215;BME280;16252;49.816;7.964;2023-05-12T10:43:36;99907.91;;;20.89;55.45
29215;BME280;16252;49.816;7.964;2023-05-12T10:51:29;99898.69;;;21.05;56.59
29215;BME280;16252;49.816;7.964;2023-05-12T10:54:03;99911.16;;;21.29;55.46
29215;BME280;16252;49.816;7.964;2023-05-12T10:56:39;99907.88;;;21.34;54.93
29215;BME280;16252;49.816;7.964;2023-05-12T10:59:10;99915.31;;;21.40;54.50
29215;BME280;16252;49.816;7.964;2023-05-12T11:01:36;99889.50;;;21.21;54.35
29215;BME280;16252;49.816;7.964;2023-05-12T11:04:12;99915.19;;;21.33;54.31
29215;BME280;16252;49.816;7.964;2023-05-12T11:06:38;99903.47;;;21.03;53.69
29215;BME280;16252;49.816;7.964;2023-05-12T11:09:04;99908.53;;;20.91;54.13
29215;BME280;16252;49.816;7.964;2023-05-12T11:11:30;99898.88;;;20.74;53.66
29215;BME280;16252;49.816;7.964;2023-05-12T11:13:56;99909.81;;;20.66;54.31
29215;BME280;16252;49.816;7.964;2023-05-12T11:16:22;99900.66;;;20.44;54.48
29215;BME280;16252;49.816;7.964;2023-05-12T11:18:48;99908.16;;;20.42;54.65
29215;BME280;16252;49.816;7.964;2023-05-12T11:21:24;99876.47;;;20.11;55.20
29215;BME280;16252;49.816;7.964;2023-05-12T11:23:49;99921.13;;;20.31;55.69
29215;BME280;16252;49.816;7.964;2023-05-12T11:26:16;99915.66;;;20.17;55.61
29215;BME280;16252;49.816;7.964;2023-05-12T11:28:42;99914.69;;;20.09;55.93
29215;BME280;16252;49.816;7.964;2023-05-12T11:31:07;99904.88;;;20.00;55.42
29215;BME280;16252;49.816;7.964;2023-05-12T11:33:32;99891.91;;;19.87;55.76
29215;BME280;16252;49.816;7.964;2023-05-12T11:35:57;99901.94;;;19.87;55.59
29215;BME280;16252;49.816;7.964;2023-05-12T11:38:23;99913.47;;;19.89;55.67
29215;BME280;16252;49.816;7.964;2023-05-12T11:40:51;99898.59;;;19.77;56.02
29215;BME280;16252;49.816;7.964;2023-05-12T11:43:19;99922.28;;;19.91;55.33
29215;BME280;16252;49.816;7.964;2023-05-12T11:45:45;99909.16;;;19.72;55.47
29215;BME280;16252;49.816;7.964;2023-05-12T11:48:12;99927.56;;;19.84;55.16
29215;BME280;16252;49.816;7.964;2023-05-12T11:50:43;99930.47;;;19.83;55.04
29215;BME280;16252;49.816;7.964;2023-05-12T11:53:10;99922.19;;;19.76;55.22
29215;BME280;16252;49.816;7.964;2023-05-12T11:55:36;99911.03;;;19.63;55.14
29215;BME280;16252;49.816;7.964;2023-05-12T11:58:02;99918.69;;;19.67;55.77
29215;BME280;16252;49.816;7.964;2023-05-12T12:00:33;99915.13;;;19.67;55.61
29215;BME280;16252;49.816;7.964;2023-05-12T12:03:12;99926.59;;;19.77;56.28
29215;BME280;16252;49.816;7.964;2023-05-12T12:05:39;99946.09;;;19.81;56.11
29215;BME280;16252;49.816;7.964;2023-05-12T12:08:06;99934.72;;;19.77;55.85
29215;BME280;16252;49.816;7.964;2023-05-12T12:10:32;99942.53;;;19.80;55.87
29215;BME280;16252;49.816;7.964;2023-05-12T12:12:59;99953.03;;;19.83;56.32
29215;BME280;16252;49.816;7.964;2023-05-12T12:15:25;99930.03;;;19.71;55.88
29215;BME280;16252;49.816;7.964;2023-05-12T12:17:52;99937.44;;;19.77;55.88
29215;BME280;16252;49.816;7.964;2023-05-12T12:20:17;99951.84;;;19.86;55.92
29215;BME280;16252;49.816;7.964;2023-05-12T12:22:43;99949.13;;;19.86;56.18
29215;BME280;16252;49.816;7.964;2023-05-12T12:25:09;99957.75;;;19.89;55.89
29215;BME280;16252;49.816;7.964;2023-05-12T12:27:35;99936.81;;;19.75;56.00
29215;BME280;16252;49.816;7.964;2023-05-12T12:30:00;99963.00;;;19.91;56.08
29215;BME280;16252;49.816;7.964;2023-05-12T12:32:26;99949.66;;;19.81;55.98
29215;BME280;16252;49.816;7.964;2023-05-12T12:34:52;99969.81;;;19.87;56.02
29215;BME280;16252;49.816;7.964;2023-05-12T12:37:17;99961.84;;;19.85;56.02
29215;BME280;16252;49.816;7.964;2023-05-12T12:39:43;99892.84;;;19.40;55.81
29215;BME280;16252;49.816;7.964;2023-05-12T12:42:08;99954.59;;;19.78;55.61
29215;BME280;16252;49.816;7.964;2023-05-12T12:44:33;99938.19;;;19.63;55.45
29215;BME280;16252;49.816;7.964;2023-05-12T12:46:58;99934.78;;;19.69;55.41
29215;BME280;16252;49.816;7.964;2023-05-12T12:49:24;99951.69;;;19.79;54.64
29215;BME280;16252;49.816;7.964;2023-05-12T12:51:49;99951.31;;;19.82;54.76
29215;BME280;16252;49.816;7.964;2023-05-12T12:54:14;99957.56;;;19.91;54.15
29215;BME280;16252;49.816;7.964;2023-05-12T12:56:40;99949.53;;;19.98;54.88
29215;BME280;16252;49.816;7.964;2023-05-12T12:59:06;99958.03;;;20.03;54.63
29215;BME280;16252;49.816;7.964;2023-05-12T13:01:31;99971.47;;;20.19;54.61